sensor_id;sensor_type;location;lat;lon;timestamp;P1;durP1;ratioP1;P2;durP2;ratioP2
54823;SDS011;40724;53.196;5.980;2023-07-30T00:02:19;18.05;;;6.47;;
54823;SDS011;40724;53.196;5.980;2023-07-30T00:05:04;21.90;;;7.53;;
54823;SDS011;40724;53.196;5.980;2023-07-30T00:07:49;15.43;;;7.28;;
54823;SDS011;40724;53.196;5.980;2023-07-30T00:10:35;15.77;;;7.05;;
54823;SDS011;40724;53.196;5.980;2023-07-30T00:13:20;16.15;;;7.00;;
54823;SDS011;40724;53.196;5.980;2023-07-30T00:16:05;21.27;;;8.20;;
54823;SDS011;40724;53.196;5.980;2023-07-30T00:18:49;18.30;;;7.88;;
54823;SDS011;40724;53.196;5.980;2023-07-30T00:21:34;29.17;;;7.95;;
54823;SDS011;40724;53.196;5.980;2023-07-30T00:24:19;19.05;;;7.53;;
54823;SDS011;40724;53.196;5.980;2023-07-30T00:27:04;19.27;;;7.60;;
54823;SDS011;40724;53.196;5.980;2023-07-30T00:29:49;21.23;;;7.70;;
54823;SDS011;40724;53.196;5.980;2023-07-30T00:32:34;16.58;;;7.15;;
54823;SDS011;40724;53.196;5.980;2023-07-30T00:35:19;19.52;;;8.20;;
54823;SDS011;40724;53.196;5.980;2023-07-30T00:38:04;15.30;;;5.97;;
54823;SDS011;40724;53.196;5.980;2023-07-30T00:40:49;17.55;;;7.15;;
54823;SDS011;40724;53.196;5.980;2023-07-30T00:43:34;19.23;;;7.28;;
54823;SDS011;40724;53.196;5.980;2023-07-30T00:46:19;17.13;;;8.55;;
54823;SDS011;40724;53.196;5.980;2023-07-30T00:49:04;20.02;;;8.13;;
54823;SDS011;40724;53.196;5.980;2023-07-30T00:51:49;14.00;;;6.35;;
54823;SDS011;40724;53.196;5.980;2023-07-30T00:54:33;17.08;;;6.57;;
54823;SDS011;40724;53.196;5.980;2023-07-30T00:57:19;17.10;;;7.05;;
54823;SDS011;40724;53.196;5.980;2023-07-30T01:00:03;23.45;;;8.13;;
54823;SDS011;40724;53.196;5.980;2023-07-30T01:02:51;16.50;;;6.22;;
54823;SDS011;40724;53.196;5.980;2023-07-30T01:05:36;22.88;;;8.52;;
54823;SDS011;40724;53.196;5.980;2023-07-30T01:08:21;23.02;;;8.98;;
54823;SDS011;40724;53.196;5.980;2023-07-30T01:11:06;16.30;;;7.15;;
54823;SDS011;40724;53.196;5.980;2023-07-30T01:13:52;26.38;;;8.65;;
54823;SDS011;40724;53.196;5.980;2023-07-30T01:16:37;23.48;;;7.47;;
54823;SDS011;40724;53.196;5.980;2023-07-30T01:19:22;20.42;;;7.72;;
54823;SDS011;40724;53.196;5.980;2023-07-30T01:22:07;25.52;;;7.65;;
54823;SDS011;40724;53.196;5.980;2023-07-30T01:24:52;18.35;;;7.78;;
54823;SDS011;40724;53.196;5.980;2023-07-30T01:27:37;18.60;;;7.25;;
54823;SDS011;40724;53.196;5.980;2023-07-30T01:30:29;17.88;;;7.60;;
54823;SDS011;40724;53.196;5.980;2023-07-30T01:33:14;21.83;;;7.40;;
54823;SDS011;40724;53.196;5.980;2023-07-30T01:35:59;17.75;;;6.65;;
54823;SDS011;40724;53.196;5.980;2023-07-30T01:38:44;17.70;;;7.90;;
54823;SDS011;40724;53.196;5.980;2023-07-30T01:41:29;12.15;;;6.93;;
54823;SDS011;40724;53.196;5.980;2023-07-30T01:44:14;20.98;;;7.13;;
54823;SDS011;40724;53.196;5.980;2023-07-30T01:46:59;23.05;;;8.02;;
54823;SDS011;40724;53.196;5.980;2023-07-30T01:49:43;19.25;;;7.03;;
54823;SDS011;40724;53.196;5.980;2023-07-30T01:52:28;18.35;;;7.30;;
54823;SDS011;40724;53.196;5.980;2023-07-30T01:55:13;25.08;;;7.53;;
54823;SDS011;40724;53.196;5.980;2023-07-30T01:57:58;19.70;;;6.82;;
54823;SDS011;40724;53.196;5.980;2023-07-30T02:00:43;25.67;;;6.82;;
54823;SDS011;40724;53.196;5.980;2023-07-30T02:03:28;17.33;;;7.43;;
54823;SDS011;40724;53.196;5.980;2023-07-30T02:06:13;15.75;;;6.53;;
54823;SDS011;40724;53.196;5.980;2023-07-30T02:08:58;18.48;;;7.45;;
54823;SDS011;40724;53.196;5.980;2023-07-30T02:11:43;19.13;;;7.15;;
54823;SDS011;40724;53.196;5.980;2023-07-30T02:14:28;18.65;;;6.90;;
54823;SDS011;40724;53.196;5.980;2023-07-30T02:17:13;31.35;;;8.07;;
54823;SDS011;40724;53.196;5.980;2023-07-30T02:19:58;19.55;;;7.38;;
54823;SDS011;40724;53.196;5.980;2023-07-30T02:22:42;20.05;;;8.63;;
54823;SDS011;40724;53.196;5.980;2023-07-30T02:25:28;22.42;;;7.28;;
54823;SDS011;40724;53.196;5.980;2023-07-30T02:28:13;18.73;;;7.03;;
54823;SDS011;40724;53.196;5.980;2023-07-30T02:30:58;21.67;;;7.47;;
54823;SDS011;40724;53.196;5.980;2023-07-30T02:33:42;23.65;;;7.07;;
54823;SDS011;40724;53.196;5.980;2023-07-30T02:36:27;26.35;;;7.97;;
54823;SDS011;40724;53.196;5.980;2023-07-30T02:39:12;16.35;;;6.90;;
54823;SDS011;40724;53.196;5.980;2023-07-30T02:41:57;16.40;;;6.90;;
54823;SDS011;40724;53.196;5.980;2023-07-30T02:44:42;18.38;;;7.30;;
54823;SDS011;40724;53.196;5.980;2023-07-30T02:47:27;17.52;;;6.80;;
54823;SDS011;40724;53.196;5.980;2023-07-30T02:50:12;17.60;;;6.45;;
54823;SDS011;40724;53.196;5.980;2023-07-30T02:52:57;16.77;;;6.55;;
54823;SDS011;40724;53.196;5.980;2023-07-30T02:55:41;15.52;;;6.53;;
54823;SDS011;40724;53.196;5.980;2023-07-30T02:58:26;18.95;;;5.57;;
54823;SDS011;40724;53.196;5.980;2023-07-30T03:01:11;14.73;;;6.45;;
54823;SDS011;40724;53.196;5.980;2023-07-30T03:03:56;18.42;;;6.13;;
54823;SDS011;40724;53.196;5.980;2023-07-30T03:06:41;18.63;;;7.35;;
54823;SDS011;40724;53.196;5.980;2023-07-30T03:09:26;14.13;;;6.45;;
54823;SDS011;40724;53.196;5.980;2023-07-30T03:12:11;15.73;;;6.07;;
54823;SDS011;40724;53.196;5.980;2023-07-30T03:14:56;16.17;;;7.00;;
54823;SDS011;40724;53.196;5.980;2023-07-30T03:17:41;22.02;;;7.03;;
54823;SDS011;40724;53.196;5.980;2023-07-30T03:20:26;14.18;;;5.93;;
54823;SDS011;40724;53.196;5.980;2023-07-30T03:23:11;20.75;;;7.82;;
54823;SDS011;40724;53.196;5.980;2023-07-30T03:25:55;19.42;;;7.45;;
54823;SDS011;40724;53.196;5.980;2023-07-30T03:28:40;20.92;;;6.55;;
54823;SDS011;40724;53.196;5.980;2023-07-30T03:31:25;20.52;;;6.57;;
54823;SDS011;40724;53.196;5.980;2023-07-30T03:34:12;12.65;;;5.80;;
54823;SDS011;40724;53.196;5.980;2023-07-30T03:36:56;16.20;;;7.18;;
54823;SDS011;40724;53.196;5.980;2023-07-30T03:39:43;15.68;;;5.43;;
54823;SDS011;40724;53.196;5.980;2023-07-30T03:42:28;14.60;;;6.43;;
54823;SDS011;40724;53.196;5.980;2023-07-30T03:45:13;16.08;;;6.00;;
54823;SDS011;40724;53.196;5.980;2023-07-30T03:47:58;9.75;;;4.70;;
54823;SDS011;40724;53.196;5.980;2023-07-30T03:50:43;15.48;;;6.32;;
54823;SDS011;40724;53.196;5.980;2023-07-30T03:53:28;18.35;;;6.80;;
54823;SDS011;40724;53.196;5.980;2023-07-30T03:56:12;11.18;;;5.65;;
54823;SDS011;40724;53.196;5.980;2023-07-30T03:58:57;15.32;;;5.90;;
54823;SDS011;40724;53.196;5.980;2023-07-30T04:01:42;12.52;;;4.57;;
54823;SDS011;40724;53.196;5.980;2023-07-30T04:04:27;11.23;;;5.38;;
54823;SDS011;40724;53.196;5.980;2023-07-30T04:07:12;25.00;;;6.65;;
54823;SDS011;40724;53.196;5.980;2023-07-30T04:09:57;19.48;;;6.72;;
54823;SDS011;40724;53.196;5.980;2023-07-30T04:12:42;15.18;;;5.32;;
54823;SDS011;40724;53.196;5.980;2023-07-30T04:15:27;13.68;;;4.45;;
54823;SDS011;40724;53.196;5.980;2023-07-30T04:18:12;17.60;;;5.90;;
54823;SDS011;40724;53.196;5.980;2023-07-30T04:20:56;19.17;;;5.30;;
54823;SDS011;40724;53.196;5.980;2023-07-30T04:23:41;16.75;;;6.25;;
54823;SDS011;40724;53.196;5.980;2023-07-30T04:26:26;13.98;;;5.80;;
54823;SDS011;40724;53.196;5.980;2023-07-30T04:29:11;14.93;;;4.65;;
54823;SDS011;40724;53.196;5.980;2023-07-30T04:31:58;13.45;;;4.10;;
54823;SDS011;40724;53.196;5.980;2023-07-30T04:34:42;11.55;;;4.13;;
54823;SDS011;40724;53.196;5.980;2023-07-30T04:37:27;20.08;;;5.38;;
54823;SDS011;40724;53.196;5.980;2023-07-30T04:40:12;11.65;;;4.22;;
54823;SDS011;40724;53.196;5.980;2023-07-30T04:42:57;10.65;;;3.83;;
54823;SDS011;40724;53.196;5.980;2023-07-30T04:45:42;10.32;;;4.43;;
54823;SDS011;40724;53.196;5.980;2023-07-30T04:48:27;7.30;;;3.00;;
54823;SDS011;40724;53.196;5.980;2023-07-30T04:51:12;7.93;;;3.40;;
54823;SDS011;40724;53.196;5.980;2023-07-30T04:53:57;10.48;;;3.67;;
54823;SDS011;40724;53.196;5.980;2023-07-30T04:56:42;11.55;;;3.78;;
54823;SDS011;40724;53.196;5.980;2023-07-30T04:59:26;9.85;;;2.90;;
54823;SDS011;40724;53.196;5.980;2023-07-30T05:02:11;15.38;;;4.13;;
54823;SDS011;40724;53.196;5.980;2023-07-30T05:04:56;8.32;;;3.03;;
54823;SDS011;40724;53.196;5.980;2023-07-30T05:07:41;9.65;;;3.13;;
54823;SDS011;40724;53.196;5.980;2023-07-30T05:10:26;10.93;;;3.83;;
54823;SDS011;40724;53.196;5.980;2023-07-30T05:13:10;9.48;;;3.15;;
54823;SDS011;40724;53.196;5.980;2023-07-30T05:15:57;6.00;;;2.65;;
54823;SDS011;40724;53.196;5.980;2023-07-30T05:18:42;6.40;;;2.65;;
54823;SDS011;40724;53.196;5.980;2023-07-30T05:21:27;9.15;;;2.97;;
54823;SDS011;40724;53.196;5.980;2023-07-30T05:24:12;20.58;;;4.18;;
54823;SDS011;40724;53.196;5.980;2023-07-30T05:26:57;7.57;;;2.97;;
54823;SDS011;40724;53.196;5.980;2023-07-30T05:29:42;12.80;;;3.85;;
54823;SDS011;40724;53.196;5.980;2023-07-30T05:32:27;7.28;;;3.45;;
54823;SDS011;40724;53.196;5.980;2023-07-30T05:35:12;12.25;;;3.22;;
54823;SDS011;40724;53.196;5.980;2023-07-30T05:37:57;7.05;;;2.03;;
54823;SDS011;40724;53.196;5.980;2023-07-30T05:40:42;8.68;;;3.60;;
54823;SDS011;40724;53.196;5.980;2023-07-30T05:43:27;14.05;;;4.30;;
54823;SDS011;40724;53.196;5.980;2023-07-30T05:46:12;5.97;;;3.35;;
54823;SDS011;40724;53.196;5.980;2023-07-30T05:48:56;8.57;;;2.85;;
54823;SDS011;40724;53.196;5.980;2023-07-30T05:51:41;12.07;;;3.13;;
54823;SDS011;40724;53.196;5.980;2023-07-30T05:54:26;8.15;;;3.20;;
54823;SDS011;40724;53.196;5.980;2023-07-30T05:57:11;8.07;;;2.67;;
54823;SDS011;40724;53.196;5.980;2023-07-30T05:59:56;12.93;;;2.53;;
54823;SDS011;40724;53.196;5.980;2023-07-30T06:02:40;7.68;;;2.88;;
54823;SDS011;40724;53.196;5.980;2023-07-30T06:05:26;13.65;;;3.40;;
54823;SDS011;40724;53.196;5.980;2023-07-30T06:08:10;7.22;;;2.78;;
54823;SDS011;40724;53.196;5.980;2023-07-30T06:10:59;7.43;;;3.03;;
54823;SDS011;40724;53.196;5.980;2023-07-30T06:13:44;10.45;;;3.00;;
54823;SDS011;40724;53.196;5.980;2023-07-30T06:16:29;11.65;;;3.78;;
54823;SDS011;40724;53.196;5.980;2023-07-30T06:19:14;9.75;;;3.67;;
54823;SDS011;40724;53.196;5.980;2023-07-30T06:21:59;10.52;;;4.03;;
54823;SDS011;40724;53.196;5.980;2023-07-30T06:24:43;9.00;;;3.42;;
54823;SDS011;40724;53.196;5.980;2023-07-30T06:27:28;8.30;;;3.17;;
54823;SDS011;40724;53.196;5.980;2023-07-30T06:30:13;11.35;;;2.95;;
54823;SDS011;40724;53.196;5.980;2023-07-30T06:32:58;9.95;;;3.55;;
54823;SDS011;40724;53.196;5.980;2023-07-30T06:35:43;20.58;;;4.13;;
54823;SDS011;40724;53.196;5.980;2023-07-30T06:38:27;9.77;;;4.15;;
54823;SDS011;40724;53.196;5.980;2023-07-30T06:41:13;7.43;;;3.13;;
54823;SDS011;40724;53.196;5.980;2023-07-30T06:43:58;27.52;;;6.13;;
54823;SDS011;40724;53.196;5.980;2023-07-30T06:46:43;9.57;;;3.17;;
54823;SDS011;40724;53.196;5.980;2023-07-30T06:49:27;11.23;;;4.57;;
54823;SDS011;40724;53.196;5.980;2023-07-30T06:52:15;8.90;;;3.58;;
54823;SDS011;40724;53.196;5.980;2023-07-30T06:55:01;10.35;;;3.47;;
54823;SDS011;40724;53.196;5.980;2023-07-30T06:57:46;9.77;;;4.20;;
54823;SDS011;40724;53.196;5.980;2023-07-30T07:00:31;12.10;;;3.33;;
54823;SDS011;40724;53.196;5.980;2023-07-30T07:03:17;9.48;;;3.47;;
54823;SDS011;40724;53.196;5.980;2023-07-30T07:06:01;8.45;;;3.00;;
54823;SDS011;40724;53.196;5.980;2023-07-30T07:08:46;9.23;;;3.45;;
54823;SDS011;40724;53.196;5.980;2023-07-30T07:11:31;13.95;;;3.63;;
54823;SDS011;40724;53.196;5.980;2023-07-30T07:14:16;13.27;;;3.67;;
54823;SDS011;40724;53.196;5.980;2023-07-30T07:17:02;15.52;;;4.35;;
54823;SDS011;40724;53.196;5.980;2023-07-30T07:19:47;9.90;;;3.05;;
54823;SDS011;40724;53.196;5.980;2023-07-30T07:22:32;8.25;;;3.50;;
54823;SDS011;40724;53.196;5.980;2023-07-30T07:25:17;9.23;;;3.28;;
54823;SDS011;40724;53.196;5.980;2023-07-30T07:28:03;7.28;;;3.53;;
54823;SDS011;40724;53.196;5.980;2023-07-30T07:30:48;9.27;;;2.80;;
54823;SDS011;40724;53.196;5.980;2023-07-30T07:33:33;10.65;;;3.65;;
54823;SDS011;40724;53.196;5.980;2023-07-30T07:36:18;7.28;;;3.17;;
54823;SDS011;40724;53.196;5.980;2023-07-30T07:39:03;10.23;;;3.35;;
54823;SDS011;40724;53.196;5.980;2023-07-30T07:41:48;8.18;;;3.13;;
54823;SDS011;40724;53.196;5.980;2023-07-30T07:44:32;6.97;;;3.08;;
54823;SDS011;40724;53.196;5.980;2023-07-30T07:47:17;8.32;;;3.20;;
54823;SDS011;40724;53.196;5.980;2023-07-30T07:50:02;12.38;;;3.92;;
54823;SDS011;40724;53.196;5.980;2023-07-30T07:52:47;15.40;;;3.63;;
54823;SDS011;40724;53.196;5.980;2023-07-30T07:55:40;11.35;;;3.75;;
54823;SDS011;40724;53.196;5.980;2023-07-30T07:58:27;15.63;;;3.63;;
54823;SDS011;40724;53.196;5.980;2023-07-30T08:01:14;10.48;;;3.78;;
54823;SDS011;40724;53.196;5.980;2023-07-30T08:04:01;9.73;;;3.47;;
54823;SDS011;40724;53.196;5.980;2023-07-30T08:06:48;10.80;;;3.60;;
54823;SDS011;40724;53.196;5.980;2023-07-30T08:09:46;9.57;;;3.85;;
54823;SDS011;40724;53.196;5.980;2023-07-30T08:15:38;8.30;;;3.40;;
54823;SDS011;40724;53.196;5.980;2023-07-30T08:18:25;8.57;;;3.20;;
54823;SDS011;40724;53.196;5.980;2023-07-30T08:21:12;6.93;;;3.42;;
54823;SDS011;40724;53.196;5.980;2023-07-30T08:23:58;14.77;;;3.72;;
54823;SDS011;40724;53.196;5.980;2023-07-30T08:26:45;11.38;;;3.45;;
54823;SDS011;40724;53.196;5.980;2023-07-30T08:29:32;9.57;;;2.80;;
54823;SDS011;40724;53.196;5.980;2023-07-30T08:32:19;9.88;;;2.95;;
54823;SDS011;40724;53.196;5.980;2023-07-30T08:35:06;9.73;;;3.60;;
54823;SDS011;40724;53.196;5.980;2023-07-30T08:37:52;16.25;;;3.67;;
54823;SDS011;40724;53.196;5.980;2023-07-30T08:40:39;11.02;;;3.85;;
54823;SDS011;40724;53.196;5.980;2023-07-30T08:43:25;5.57;;;2.42;;
54823;SDS011;40724;53.196;5.980;2023-07-30T08:46:12;8.90;;;3.38;;
54823;SDS011;40724;53.196;5.980;2023-07-30T08:48:58;9.88;;;2.92;;
54823;SDS011;40724;53.196;5.980;2023-07-30T08:51:45;6.57;;;2.00;;
54823;SDS011;40724;53.196;5.980;2023-07-30T08:54:34;3.67;;;1.88;;
54823;SDS011;40724;53.196;5.980;2023-07-30T08:57:22;5.88;;;2.63;;
54823;SDS011;40724;53.196;5.980;2023-07-30T09:00:09;6.82;;;2.72;;
54823;SDS011;40724;53.196;5.980;2023-07-30T09:02:58;10.85;;;3.35;;
54823;SDS011;40724;53.196;5.980;2023-07-30T09:05:46;6.45;;;3.17;;
54823;SDS011;40724;53.196;5.980;2023-07-30T09:08:34;5.60;;;2.80;;
54823;SDS011;40724;53.196;5.980;2023-07-30T09:11:21;7.70;;;3.17;;
54823;SDS011;40724;53.196;5.980;2023-07-30T09:14:11;17.75;;;2.78;;
54823;SDS011;40724;53.196;5.980;2023-07-30T09:16:58;9.18;;;3.20;;
54823;SDS011;40724;53.196;5.980;2023-07-30T09:19:44;5.05;;;3.03;;
54823;SDS011;40724;53.196;5.980;2023-07-30T09:22:33;8.15;;;4.15;;
54823;SDS011;40724;53.196;5.980;2023-07-30T09:25:25;6.53;;;3.58;;
54823;SDS011;40724;53.196;5.980;2023-07-30T09:28:11;7.43;;;2.50;;
54823;SDS011;40724;53.196;5.980;2023-07-30T09:31:05;10.48;;;3.03;;
54823;SDS011;40724;53.196;5.980;2023-07-30T09:33:31;9.32;;;2.72;;
54823;SDS011;40724;53.196;5.980;2023-07-30T09:35:58;8.13;;;2.83;;
54823;SDS011;40724;53.196;5.980;2023-07-30T09:38:24;7.80;;;3.13;;
54823;SDS011;40724;53.196;5.980;2023-07-30T09:40:52;15.00;;;4.30;;
54823;SDS011;40724;53.196;5.980;2023-07-30T09:43:18;10.60;;;3.03;;
54823;SDS011;40724;53.196;5.980;2023-07-30T09:45:45;9.93;;;2.35;;
54823;SDS011;40724;53.196;5.980;2023-07-30T09:48:14;6.57;;;3.22;;
54823;SDS011;40724;53.196;5.980;2023-07-30T09:50:41;6.63;;;2.92;;
54823;SDS011;40724;53.196;5.980;2023-07-30T09:53:07;10.68;;;3.95;;
54823;SDS011;40724;53.196;5.980;2023-07-30T09:55:35;4.90;;;2.58;;
54823;SDS011;40724;53.196;5.980;2023-07-30T09:58:01;21.20;;;4.28;;
54823;SDS011;40724;53.196;5.980;2023-07-30T10:00:27;8.73;;;3.08;;
54823;SDS011;40724;53.196;5.980;2023-07-30T10:02:55;10.00;;;2.70;;
54823;SDS011;40724;53.196;5.980;2023-07-30T10:05:21;11.50;;;2.72;;
54823;SDS011;40724;53.196;5.980;2023-07-30T10:07:53;11.85;;;3.20;;
54823;SDS011;40724;53.196;5.980;2023-07-30T10:10:19;8.23;;;2.72;;
54823;SDS011;40724;53.196;5.980;2023-07-30T10:12:46;9.82;;;2.85;;
54823;SDS011;40724;53.196;5.980;2023-07-30T10:15:13;8.02;;;3.33;;
54823;SDS011;40724;53.196;5.980;2023-07-30T10:17:39;7.97;;;3.15;;
54823;SDS011;40724;53.196;5.980;2023-07-30T10:20:21;8.27;;;2.75;;
54823;SDS011;40724;53.196;5.980;2023-07-30T10:22:50;9.00;;;2.50;;
54823;SDS011;40724;53.196;5.980;2023-07-30T10:25:16;8.20;;;3.03;;
54823;SDS011;40724;53.196;5.980;2023-07-30T10:27:45;8.90;;;2.97;;
54823;SDS011;40724;53.196;5.980;2023-07-30T10:30:15;8.68;;;3.55;;
54823;SDS011;40724;53.196;5.980;2023-07-30T10:32:42;7.70;;;2.83;;
54823;SDS011;40724;53.196;5.980;2023-07-30T10:35:42;11.20;;;2.83;;
54823;SDS011;40724;53.196;5.980;2023-07-30T10:40:39;7.63;;;2.35;;
54823;SDS011;40724;53.196;5.980;2023-07-30T10:43:16;6.95;;;2.70;;
54823;SDS011;40724;53.196;5.980;2023-07-30T10:45:49;9.30;;;2.83;;
54823;SDS011;40724;53.196;5.980;2023-07-30T10:48:16;8.98;;;2.97;;
54823;SDS011;40724;53.196;5.980;2023-07-30T10:50:42;10.18;;;3.22;;
54823;SDS011;40724;53.196;5.980;2023-07-30T10:53:14;7.45;;;2.90;;
54823;SDS011;40724;53.196;5.980;2023-07-30T10:55:41;7.82;;;2.85;;
54823;SDS011;40724;53.196;5.980;2023-07-30T10:58:08;9.02;;;2.50;;
54823;SDS011;40724;53.196;5.980;2023-07-30T11:00:34;13.30;;;3.08;;
54823;SDS011;40724;53.196;5.980;2023-07-30T11:03:00;7.88;;;3.22;;
54823;SDS011;40724;53.196;5.980;2023-07-30T11:05:26;8.20;;;3.20;;
54823;SDS011;40724;53.196;5.980;2023-07-30T11:07:53;7.75;;;2.90;;
54823;SDS011;40724;53.196;5.980;2023-07-30T11:10:19;6.75;;;2.80;;
54823;SDS011;40724;53.196;5.980;2023-07-30T11:12:47;7.13;;;2.72;;
54823;SDS011;40724;53.196;5.980;2023-07-30T11:15:14;6.63;;;2.88;;
54823;SDS011;40724;53.196;5.980;2023-07-30T11:17:40;8.88;;;2.50;;
54823;SDS011;40724;53.196;5.980;2023-07-30T11:20:07;11.63;;;2.70;;
54823;SDS011;40724;53.196;5.980;2023-07-30T11:22:35;6.25;;;2.83;;
54823;SDS011;40724;53.196;5.980;2023-07-30T11:25:01;5.57;;;2.50;;
54823;SDS011;40724;53.196;5.980;2023-07-30T11:27:44;9.15;;;2.30;;
54823;SDS011;40724;53.196;5.980;2023-07-30T11:30:10;4.30;;;2.20;;
54823;SDS011;40724;53.196;5.980;2023-07-30T11:32:36;5.43;;;2.50;;
54823;SDS011;40724;53.196;5.980;2023-07-30T11:35:02;4.80;;;2.13;;
54823;SDS011;40724;53.196;5.980;2023-07-30T11:37:29;7.05;;;2.38;;
54823;SDS011;40724;53.196;5.980;2023-07-30T11:39:55;8.40;;;3.22;;
54823;SDS011;40724;53.196;5.980;2023-07-30T11:42:21;7.53;;;3.08;;
54823;SDS011;40724;53.196;5.980;2023-07-30T11:44:47;5.95;;;2.28;;
54823;SDS011;40724;53.196;5.980;2023-07-30T11:47:20;10.55;;;2.70;;
54823;SDS011;40724;53.196;5.980;2023-07-30T11:49:57;4.78;;;2.40;;
54823;SDS011;40724;53.196;5.980;2023-07-30T11:52:23;5.82;;;2.40;;
54823;SDS011;40724;53.196;5.980;2023-07-30T11:54:59;5.70;;;2.55;;
54823;SDS011;40724;53.196;5.980;2023-07-30T11:57:33;10.68;;;2.22;;
54823;SDS011;40724;53.196;5.980;2023-07-30T11:59:59;7.40;;;3.08;;
54823;SDS011;40724;53.196;5.980;2023-07-30T12:02:25;11.52;;;2.60;;
54823;SDS011;40724;53.196;5.980;2023-07-30T12:04:51;6.65;;;2.63;;
54823;SDS011;40724;53.196;5.980;2023-07-30T12:07:24;7.93;;;2.63;;
54823;SDS011;40724;53.196;5.980;2023-07-30T12:09:50;5.00;;;1.77;;
54823;SDS011;40724;53.196;5.980;2023-07-30T12:12:17;6.47;;;2.25;;
54823;SDS011;40724;53.196;5.980;2023-07-30T12:14:43;8.80;;;2.10;;
54823;SDS011;40724;53.196;5.980;2023-07-30T12:17:10;7.13;;;2.15;;
54823;SDS011;40724;53.196;5.980;2023-07-30T12:19:36;7.70;;;1.92;;
54823;SDS011;40724;53.196;5.980;2023-07-30T12:22:02;10.55;;;2.30;;
54823;SDS011;40724;53.196;5.980;2023-07-30T12:24:28;6.55;;;2.15;;
54823;SDS011;40724;53.196;5.980;2023-07-30T12:26:55;10.20;;;2.65;;
54823;SDS011;40724;53.196;5.980;2023-07-30T12:29:21;6.35;;;2.17;;
54823;SDS011;40724;53.196;5.980;2023-07-30T12:31:47;4.20;;;1.63;;
54823;SDS011;40724;53.196;5.980;2023-07-30T12:34:13;5.45;;;2.20;;
54823;SDS011;40724;53.196;5.980;2023-07-30T12:36:39;8.88;;;3.10;;
54823;SDS011;40724;53.196;5.980;2023-07-30T12:39:05;7.78;;;2.47;;
54823;SDS011;40724;53.196;5.980;2023-07-30T12:41:33;8.00;;;2.53;;
54823;SDS011;40724;53.196;5.980;2023-07-30T12:43:59;7.35;;;2.45;;
54823;SDS011;40724;53.196;5.980;2023-07-30T12:46:25;11.57;;;3.08;;
54823;SDS011;40724;53.196;5.980;2023-07-30T12:48:58;6.65;;;1.95;;
54823;SDS011;40724;53.196;5.980;2023-07-30T12:51:32;9.02;;;2.10;;
54823;SDS011;40724;53.196;5.980;2023-07-30T12:53:58;7.43;;;2.13;;
54823;SDS011;40724;53.196;5.980;2023-07-30T12:56:24;5.85;;;2.47;;
54823;SDS011;40724;53.196;5.980;2023-07-30T12:58:51;4.88;;;2.58;;
54823;SDS011;40724;53.196;5.980;2023-07-30T13:01:17;7.15;;;2.88;;
54823;SDS011;40724;53.196;5.980;2023-07-30T13:03:43;4.22;;;2.45;;
54823;SDS011;40724;53.196;5.980;2023-07-30T13:06:11;5.68;;;1.60;;
54823;SDS011;40724;53.196;5.980;2023-07-30T13:08:40;2.97;;;1.67;;
54823;SDS011;40724;53.196;5.980;2023-07-30T13:11:06;6.63;;;2.03;;
54823;SDS011;40724;53.196;5.980;2023-07-30T13:13:33;9.35;;;2.13;;
54823;SDS011;40724;53.196;5.980;2023-07-30T13:15:59;6.57;;;2.10;;
54823;SDS011;40724;53.196;5.980;2023-07-30T13:18:26;6.03;;;1.98;;
54823;SDS011;40724;53.196;5.980;2023-07-30T13:20:53;11.75;;;3.40;;
54823;SDS011;40724;53.196;5.980;2023-07-30T13:23:19;6.65;;;1.98;;
54823;SDS011;40724;53.196;5.980;2023-07-30T13:25:45;6.68;;;2.47;;
54823;SDS011;40724;53.196;5.980;2023-07-30T13:28:11;5.53;;;2.00;;
54823;SDS011;40724;53.196;5.980;2023-07-30T13:30:37;7.15;;;2.42;;
54823;SDS011;40724;53.196;5.980;2023-07-30T13:33:03;10.30;;;2.90;;
54823;SDS011;40724;53.196;5.980;2023-07-30T13:35:30;4.85;;;2.22;;
54823;SDS011;40724;53.196;5.980;2023-07-30T13:37:56;4.90;;;1.90;;
54823;SDS011;40724;53.196;5.980;2023-07-30T13:40:22;6.85;;;2.30;;
54823;SDS011;40724;53.196;5.980;2023-07-30T13:42:48;10.88;;;2.95;;
54823;SDS011;40724;53.196;5.980;2023-07-30T13:45:14;7.70;;;2.15;;
54823;SDS011;40724;53.196;5.980;2023-07-30T13:47:41;11.85;;;1.95;;
54823;SDS011;40724;53.196;5.980;2023-07-30T13:50:07;6.57;;;2.78;;
54823;SDS011;40724;53.196;5.980;2023-07-30T13:52:33;4.55;;;2.50;;
54823;SDS011;40724;53.196;5.980;2023-07-30T13:54:59;11.75;;;2.17;;
54823;SDS011;40724;53.196;5.980;2023-07-30T13:57:25;12.30;;;3.33;;
54823;SDS011;40724;53.196;5.980;2023-07-30T13:59:52;4.50;;;1.83;;
54823;SDS011;40724;53.196;5.980;2023-07-30T14:02:18;10.73;;;2.92;;
54823;SDS011;40724;53.196;5.980;2023-07-30T14:04:44;7.03;;;2.70;;
54823;SDS011;40724;53.196;5.980;2023-07-30T14:07:11;4.97;;;2.08;;
54823;SDS011;40724;53.196;5.980;2023-07-30T14:09:37;7.10;;;2.72;;
54823;SDS011;40724;53.196;5.980;2023-07-30T14:12:03;7.22;;;2.10;;
54823;SDS011;40724;53.196;5.980;2023-07-30T14:14:32;4.10;;;2.05;;
54823;SDS011;40724;53.196;5.980;2023-07-30T14:16:58;5.07;;;2.22;;
54823;SDS011;40724;53.196;5.980;2023-07-30T14:19:25;7.22;;;2.10;;
54823;SDS011;40724;53.196;5.980;2023-07-30T14:21:52;5.35;;;1.95;;
54823;SDS011;40724;53.196;5.980;2023-07-30T14:24:18;6.78;;;2.70;;
54823;SDS011;40724;53.196;5.980;2023-07-30T14:26:44;5.95;;;2.05;;
54823;SDS011;40724;53.196;5.980;2023-07-30T14:29:10;4.10;;;1.67;;
54823;SDS011;40724;53.196;5.980;2023-07-30T14:31:36;4.03;;;1.75;;
54823;SDS011;40724;53.196;5.980;2023-07-30T14:34:03;10.07;;;2.38;;
54823;SDS011;40724;53.196;5.980;2023-07-30T14:36:29;5.57;;;2.13;;
54823;SDS011;40724;53.196;5.980;2023-07-30T14:38:55;4.28;;;2.35;;
54823;SDS011;40724;53.196;5.980;2023-07-30T14:41:21;9.88;;;2.97;;
54823;SDS011;40724;53.196;5.980;2023-07-30T14:43:47;6.28;;;1.90;;
54823;SDS011;40724;53.196;5.980;2023-07-30T14:46:13;4.03;;;1.70;;
54823;SDS011;40724;53.196;5.980;2023-07-30T14:48:41;9.18;;;2.67;;
54823;SDS011;40724;53.196;5.980;2023-07-30T14:51:07;11.50;;;2.35;;
54823;SDS011;40724;53.196;5.980;2023-07-30T14:53:34;5.55;;;2.35;;
54823;SDS011;40724;53.196;5.980;2023-07-30T14:56:00;5.32;;;1.77;;
54823;SDS011;40724;53.196;5.980;2023-07-30T14:58:26;5.05;;;1.40;;
54823;SDS011;40724;53.196;5.980;2023-07-30T15:00:52;4.55;;;1.88;;
54823;SDS011;40724;53.196;5.980;2023-07-30T15:03:18;4.88;;;1.80;;
54823;SDS011;40724;53.196;5.980;2023-07-30T15:05:44;6.07;;;2.33;;
54823;SDS011;40724;53.196;5.980;2023-07-30T15:08:10;6.03;;;2.40;;
54823;SDS011;40724;53.196;5.980;2023-07-30T15:10:37;5.55;;;2.35;;
54823;SDS011;40724;53.196;5.980;2023-07-30T15:13:03;4.43;;;2.25;;
54823;SDS011;40724;53.196;5.980;2023-07-30T15:15:29;4.30;;;1.70;;
54823;SDS011;40724;53.196;5.980;2023-07-30T15:17:55;1.45;;;0.93;;
54823;SDS011;40724;53.196;5.980;2023-07-30T15:20:21;3.47;;;1.70;;
54823;SDS011;40724;53.196;5.980;2023-07-30T15:22:47;3.47;;;0.98;;
54823;SDS011;40724;53.196;5.980;2023-07-30T15:25:13;2.42;;;1.35;;
54823;SDS011;40724;53.196;5.980;2023-07-30T15:27:40;5.70;;;1.67;;
54823;SDS011;40724;53.196;5.980;2023-07-30T15:30:06;3.30;;;1.25;;
54823;SDS011;40724;53.196;5.980;2023-07-30T15:32:32;4.45;;;1.42;;
54823;SDS011;40724;53.196;5.980;2023-07-30T15:35:06;3.90;;;1.65;;
54823;SDS011;40724;53.196;5.980;2023-07-30T15:37:32;5.72;;;2.10;;
54823;SDS011;40724;53.196;5.980;2023-07-30T15:39:58;4.78;;;1.90;;
54823;SDS011;40724;53.196;5.980;2023-07-30T15:42:24;6.47;;;2.25;;
54823;SDS011;40724;53.196;5.980;2023-07-30T15:44:50;9.73;;;2.97;;
54823;SDS011;40724;53.196;5.980;2023-07-30T15:47:16;6.65;;;2.65;;
54823;SDS011;40724;53.196;5.980;2023-07-30T15:49:43;7.43;;;2.60;;